createdAt,value
2022-09-17T00:01:50.046Z,4.45
2022-09-17T00:03:56.530Z,4.88
2022-09-17T00:06:09.242Z,4.45
2022-09-17T00:08:13.944Z,5.05
2022-09-17T00:10:15.691Z,4.68
2022-09-17T00:12:17.576Z,5.15
2022-09-17T00:14:19.213Z,5.20
2022-09-17T00:16:23.800Z,5.07
2022-09-17T00:18:25.483Z,4.88
2022-09-17T00:20:27.629Z,5.47
2022-09-17T00:22:29.331Z,5.20
2022-09-17T00:24:30.906Z,5.60
2022-09-17T00:26:33.836Z,5.38
2022-09-17T00:28:35.622Z,5.32
2022-09-17T00:30:45.836Z,5.68
2022-09-17T00:32:47.450Z,5.65
2022-09-17T00:34:52.175Z,5.88
2022-09-17T00:36:53.746Z,5.57
2022-09-17T00:38:59.767Z,5.85
2022-09-17T00:41:03.162Z,5.53
2022-09-17T00:43:05.603Z,5.40
2022-09-17T00:45:07.684Z,5.13
2022-09-17T00:47:15.303Z,6.18
2022-09-17T00:49:17.650Z,5.63
2022-09-17T00:51:23.274Z,5.57
2022-09-17T00:53:24.841Z,6.10
2022-09-17T00:55:34.145Z,5.85
2022-09-17T00:57:35.854Z,4.53
2022-09-17T00:59:37.588Z,6.28
2022-09-17T01:01:39.273Z,6.10
2022-09-17T01:03:41.573Z,5.32
2022-09-17T01:05:50.362Z,6.20
2022-09-17T01:08:08.091Z,5.43
2022-09-17T01:10:35.818Z,5.28
2022-09-17T01:12:56.338Z,5.50
2022-09-17T01:15:16.751Z,6.10
2022-09-17T01:17:18.386Z,6.40
2022-09-17T01:19:30.045Z,5.57
2022-09-17T01:21:38.344Z,6.22
2022-09-17T01:23:45.976Z,6.55
2022-09-17T01:25:56.738Z,6.25
2022-09-17T01:28:16.813Z,6.05
2022-09-17T01:30:31.293Z,5.50
2022-09-17T01:32:46.902Z,5.47
2022-09-17T01:34:54.720Z,5.28
2022-09-17T01:37:04.575Z,5.38
2022-09-17T01:39:12.919Z,5.72
2022-09-17T01:41:31.012Z,4.50
2022-09-17T01:43:39.178Z,4.80
2022-09-17T01:45:51.211Z,5.63
2022-09-17T01:47:57.108Z,5.07
2022-09-17T01:50:03.671Z,5.55
2022-09-17T01:52:07.564Z,5.20
2022-09-17T01:54:21.627Z,5.55
2022-09-17T01:58:32.043Z,4.95
2022-09-17T02:00:34.046Z,5.32
2022-09-17T02:02:53.917Z,5.93
2022-09-17T02:05:07.138Z,5.65
2022-09-17T02:07:15.382Z,5.30
2022-09-17T02:09:34.058Z,5.28
2022-09-17T02:11:37.649Z,5.18
2022-09-17T02:13:43.183Z,5.10
2022-09-17T02:15:49.945Z,4.80
2022-09-17T02:18:20.350Z,5.13
2022-09-17T02:20:28.389Z,5.35
2022-09-17T02:22:56.964Z,5.07
2022-09-17T02:25:07.583Z,5.40
2022-09-17T02:27:17.727Z,5.20
2022-09-17T02:29:39.724Z,5.28
2022-09-17T02:31:42.034Z,5.68
2022-09-17T02:33:46.675Z,5.60
2022-09-17T02:35:48.291Z,5.20
2022-09-17T02:37:50.198Z,4.60
2022-09-17T02:39:51.794Z,4.95
2022-09-17T02:42:24.444Z,4.72
2022-09-17T02:44:43.047Z,5.05
2022-09-17T02:47:16.891Z,6.10
2022-09-17T02:49:37.810Z,5.57
2022-09-17T02:51:47.629Z,5.43
2022-09-17T02:53:59.482Z,5.88
2022-09-17T02:56:13.710Z,5.28
2022-09-17T02:58:21.644Z,5.45
2022-09-17T03:00:24.204Z,5.20
2022-09-17T03:02:31.366Z,5.55
2022-09-17T03:04:34.211Z,5.63
2022-09-17T03:06:35.960Z,5.13
2022-09-17T03:08:41.274Z,5.82
2022-09-17T03:10:43.258Z,5.40
2022-09-17T03:12:44.838Z,5.72
2022-09-17T03:14:46.584Z,5.05
2022-09-17T03:16:48.288Z,4.93
2022-09-17T03:18:49.980Z,5.53
2022-09-17T03:20:51.664Z,4.28
2022-09-17T03:22:53.264Z,4.15
2022-09-17T03:24:54.840Z,4.65
2022-09-17T03:26:56.478Z,4.20
2022-09-17T03:28:58.739Z,4.28
2022-09-17T03:31:00.536Z,4.93
2022-09-17T03:33:02.220Z,4.38
2022-09-17T03:35:04.039Z,4.70
2022-09-17T03:37:05.734Z,4.72
2022-09-17T03:39:07.611Z,5.05
2022-09-17T03:41:09.207Z,4.68
2022-09-17T03:43:11.159Z,4.25
2022-09-17T03:45:13.076Z,4.18
2022-09-17T03:47:17.021Z,4.85
2022-09-17T03:49:18.750Z,5.03
2022-09-17T03:51:20.455Z,4.22
2022-09-17T03:53:22.036Z,4.57
2022-09-17T03:55:23.616Z,4.40
2022-09-17T03:57:25.555Z,3.90
2022-09-17T03:59:27.469Z,4.72
2022-09-17T04:01:29.420Z,4.20
2022-09-17T04:03:31.465Z,4.22
2022-09-17T04:05:33.379Z,4.22
2022-09-17T04:07:34.973Z,4.28
2022-09-17T04:09:36.835Z,4.63
2022-09-17T04:11:38.512Z,4.38
2022-09-17T04:13:40.135Z,4.20
2022-09-17T04:15:42.419Z,4.40
2022-09-17T04:17:44.236Z,4.20
2022-09-17T04:19:45.784Z,5.57
2022-09-17T04:21:47.536Z,5.18
2022-09-17T04:23:49.111Z,5.20
2022-09-17T04:25:50.767Z,5.25
2022-09-17T04:27:52.824Z,5.32
2022-09-17T04:29:54.468Z,5.63
2022-09-17T04:31:56.039Z,5.97
2022-09-17T04:33:57.743Z,5.85
2022-09-17T04:35:59.358Z,5.85
2022-09-17T04:38:01.214Z,5.78
2022-09-17T04:40:07.547Z,5.72
2022-09-17T04:42:09.608Z,5.45
2022-09-17T04:44:11.257Z,5.90
2022-09-17T04:46:14.493Z,4.90
2022-09-17T04:48:16.687Z,5.30
2022-09-17T04:50:19.420Z,5.38
2022-09-17T04:52:21.057Z,4.95
2022-09-17T04:54:22.799Z,5.57
2022-09-17T04:56:24.466Z,3.60
2022-09-17T04:58:26.214Z,3.63
2022-09-17T05:00:27.824Z,3.42
2022-09-17T05:02:29.683Z,3.30
2022-09-17T05:04:31.419Z,2.97
2022-09-17T05:06:33.211Z,2.80
2022-09-17T05:08:34.814Z,2.90
2022-09-17T05:10:36.507Z,2.60
2022-09-17T05:12:38.151Z,2.75
2022-09-17T05:14:39.748Z,2.83
2022-09-17T05:16:41.474Z,2.88
2022-09-17T05:18:43.190Z,2.53
2022-09-17T05:20:44.790Z,3.00
2022-09-17T05:22:49.129Z,3.00
2022-09-17T05:24:50.777Z,3.10
2022-09-17T05:26:52.351Z,2.70
2022-09-17T05:28:53.907Z,2.35
2022-09-17T05:30:58.733Z,2.78
2022-09-17T05:33:02.186Z,2.22
2022-09-17T05:35:06.130Z,2.85
2022-09-17T05:37:10.869Z,2.40
2022-09-17T05:39:12.484Z,2.17
2022-09-17T05:41:14.321Z,3.03
2022-09-17T05:43:16.197Z,2.60
2022-09-17T05:45:17.774Z,2.60
2022-09-17T05:47:19.544Z,1.70
2022-09-17T05:49:21.248Z,2.30
2022-09-17T05:51:22.942Z,2.15
2022-09-17T05:53:24.617Z,1.80
2022-09-17T05:55:26.745Z,1.92
2022-09-17T05:57:29.927Z,1.92
2022-09-17T05:59:31.794Z,1.80
2022-09-17T06:01:33.518Z,2.13
2022-09-17T06:03:35.144Z,1.60
2022-09-17T06:05:36.785Z,2.65
2022-09-17T06:07:39.346Z,2.55
2022-09-17T06:09:41.167Z,3.33
2022-09-17T06:11:42.821Z,2.80
2022-09-17T06:13:44.661Z,3.92
2022-09-17T06:15:51.257Z,5.25
2022-09-17T06:17:53.122Z,5.05
2022-09-17T06:19:54.750Z,5.03
2022-09-17T06:21:56.457Z,3.00
2022-09-17T06:23:58.013Z,3.00
2022-09-17T06:26:00.349Z,2.97
2022-09-17T06:28:03.431Z,3.30
2022-09-17T06:30:05.989Z,4.13
2022-09-17T06:32:11.055Z,3.85
2022-09-17T06:34:12.765Z,3.13
2022-09-17T06:36:14.873Z,3.30
2022-09-17T06:38:16.508Z,3.58
2022-09-17T06:40:18.151Z,4.00
2022-09-17T06:42:19.760Z,3.40
2022-09-17T06:44:21.322Z,3.13
2022-09-17T06:46:23.046Z,3.00
2022-09-17T06:48:26.900Z,2.60
2022-09-17T06:50:28.534Z,2.35
2022-09-17T06:52:30.189Z,2.80
2022-09-17T06:54:32.283Z,3.53
2022-09-17T06:56:34.424Z,3.08
2022-09-17T06:58:41.968Z,3.00
2022-09-17T07:00:43.607Z,3.22
2022-09-17T07:02:56.106Z,2.85
2022-09-17T07:04:57.867Z,3.15
2022-09-17T07:06:59.499Z,3.72
2022-09-17T07:09:01.367Z,2.67
2022-09-17T07:11:03.103Z,3.55
2022-09-17T07:13:04.677Z,3.20
2022-09-17T07:15:06.641Z,3.50
2022-09-17T07:17:08.335Z,2.78
2022-09-17T07:19:11.152Z,2.75
2022-09-17T07:21:12.845Z,3.13
2022-09-17T07:23:14.464Z,3.05
2022-09-17T07:25:16.464Z,3.65
2022-09-17T07:27:18.029Z,3.67
2022-09-17T07:29:20.742Z,3.60
2022-09-17T07:31:23.504Z,3.53
2022-09-17T07:33:27.775Z,3.53
2022-09-17T07:35:29.475Z,2.65
2022-09-17T07:37:31.326Z,3.47
2022-09-17T07:39:32.893Z,3.40
2022-09-17T07:41:34.830Z,3.00
2022-09-17T07:43:36.600Z,3.50
2022-09-17T07:45:38.173Z,3.70
2022-09-17T07:47:41.423Z,3.83
2022-09-17T07:49:43.109Z,3.78
2022-09-17T07:51:44.640Z,4.20
2022-09-17T07:53:47.792Z,3.95
2022-09-17T07:55:52.958Z,4.30
2022-09-17T07:57:54.517Z,4.78
2022-09-17T07:59:56.091Z,4.93
2022-09-17T08:01:57.952Z,4.65
2022-09-17T08:04:00.279Z,3.90
2022-09-17T08:06:06.734Z,4.07
2022-09-17T08:08:08.592Z,4.10
2022-09-17T08:10:10.271Z,3.90
2022-09-17T08:12:11.885Z,4.00
2022-09-17T08:14:15.374Z,3.53
2022-09-17T08:18:18.971Z,3.40
2022-09-17T08:20:21.159Z,2.90
2022-09-17T08:22:22.873Z,2.88
2022-09-17T08:24:24.659Z,2.72
2022-09-17T08:26:26.851Z,2.85
2022-09-17T08:28:30.322Z,2.22
2022-09-17T08:30:32.447Z,2.72
2022-09-17T08:32:34.012Z,2.95
2022-09-17T08:34:36.819Z,2.70
2022-09-17T08:36:38.485Z,2.15
2022-09-17T08:38:40.788Z,2.50
2022-09-17T08:40:58.430Z,2.90
2022-09-17T08:43:02.467Z,2.67
2022-09-17T08:45:06.072Z,2.05
2022-09-17T08:49:48.992Z,2.53
2022-09-17T08:52:19.143Z,2.17
2022-09-17T08:54:24.102Z,2.33
2022-09-17T08:56:26.785Z,2.40
2022-09-17T08:58:46.650Z,2.80
2022-09-17T09:00:55.992Z,2.40
2022-09-17T09:03:31.751Z,2.83
2022-09-17T09:05:48.213Z,2.55
2022-09-17T09:07:52.799Z,2.13
2022-09-17T09:10:11.548Z,1.98
2022-09-17T09:12:20.563Z,2.97
2022-09-17T09:14:28.981Z,2.92
2022-09-17T09:16:33.522Z,2.20
2022-09-17T09:18:37.966Z,2.63
2022-09-17T09:20:55.584Z,2.65
2022-09-17T09:22:58.331Z,2.55
2022-09-17T09:25:27.376Z,2.67
2022-09-17T09:27:33.494Z,2.83
2022-09-17T09:29:47.800Z,2.60
2022-09-17T09:32:16.371Z,2.60
2022-09-17T09:34:18.958Z,2.97
2022-09-17T09:36:22.176Z,3.00
2022-09-17T09:38:30.816Z,2.38
2022-09-17T09:40:55.486Z,3.42
2022-09-17T09:43:01.220Z,3.03
2022-09-17T09:45:12.869Z,2.92
2022-09-17T09:47:29.862Z,3.42
2022-09-17T09:50:09.431Z,3.45
2022-09-17T09:52:24.204Z,3.20
2022-09-17T09:54:59.626Z,3.17
2022-09-17T09:57:07.458Z,4.18
2022-09-17T09:59:12.006Z,3.97
2022-09-17T10:01:22.279Z,3.78
2022-09-17T10:03:28.194Z,4.22
2022-09-17T10:05:30.461Z,4.20
2022-09-17T10:07:32.436Z,4.13
2022-09-17T10:09:36.936Z,3.63
2022-09-17T10:11:39.559Z,3.92
2022-09-17T10:13:41.526Z,4.53
2022-09-17T10:15:43.440Z,4.15
2022-09-17T10:17:45.058Z,4.80
2022-09-17T10:20:10.571Z,4.60
2022-09-17T10:22:25.158Z,5.10
2022-09-17T10:24:31.097Z,4.65
2022-09-17T10:26:35.989Z,4.32
2022-09-17T10:28:49.032Z,4.50
2022-09-17T10:31:06.424Z,4.53
2022-09-17T10:33:20.260Z,4.65
2022-09-17T10:35:22.149Z,4.97
2022-09-17T10:37:43.629Z,4.28
2022-09-17T10:39:48.697Z,4.93
2022-09-17T10:42:11.809Z,5.10
2022-09-17T10:44:18.006Z,5.30
2022-09-17T10:46:29.082Z,7.20
2022-09-17T10:48:40.398Z,5.22
2022-09-17T10:50:41.982Z,6.13
2022-09-17T10:52:49.320Z,6.47
2022-09-17T10:55:12.288Z,5.00
2022-09-17T10:57:24.561Z,3.78
2022-09-17T10:59:41.497Z,4.18
2022-09-17T11:02:05.261Z,4.20
2022-09-17T11:04:16.333Z,5.07
2022-09-17T11:06:27.559Z,3.97
2022-09-17T11:09:02.984Z,3.45
2022-09-17T11:11:12.569Z,3.95
2022-09-17T11:13:38.744Z,3.42
2022-09-17T11:16:15.224Z,10.10
2022-09-17T11:18:25.749Z,5.63
2022-09-17T11:20:30.409Z,3.38
2022-09-17T11:22:58.143Z,4.57
2022-09-17T11:25:23.795Z,4.78
2022-09-17T11:28:07.776Z,9.43
2022-09-17T11:30:22.154Z,6.80
2022-09-17T11:32:46.116Z,6.40
2022-09-17T11:35:02.879Z,5.30
2022-09-17T11:37:23.064Z,5.20
2022-09-17T11:39:33.098Z,4.47
2022-09-17T11:41:38.582Z,4.35
2022-09-17T11:43:58.647Z,3.80
2022-09-17T11:46:08.985Z,3.40
2022-09-17T11:48:13.982Z,3.40
2022-09-17T11:50:40.509Z,3.10
2022-09-17T11:52:45.414Z,2.60
2022-09-17T11:54:50.039Z,2.40
2022-09-17T11:56:54.207Z,2.60
2022-09-17T11:59:03.716Z,2.90
2022-09-17T12:01:10.221Z,2.47
2022-09-17T12:03:43.055Z,2.75
2022-09-17T12:05:57.328Z,3.15
2022-09-17T12:08:16.308Z,3.65
2022-09-17T12:10:34.231Z,3.53
2022-09-17T12:12:49.528Z,3.15
2022-09-17T12:14:54.764Z,2.83
2022-09-17T12:17:01.173Z,3.20
2022-09-17T12:19:14.741Z,3.05
2022-09-17T12:21:21.501Z,3.30
2022-09-17T12:23:38.725Z,2.63
2022-09-17T12:26:24.740Z,1.92
2022-09-17T12:28:35.256Z,3.00
2022-09-17T12:30:42.270Z,3.05
2022-09-17T12:32:48.117Z,3.00
2022-09-17T12:35:02.263Z,2.92
2022-09-17T12:37:11.443Z,1.20
2022-09-17T12:39:33.906Z,1.67
2022-09-17T12:41:35.473Z,1.70
2022-09-17T12:43:49.502Z,1.17
2022-09-17T12:48:06.491Z,1.55
2022-09-17T12:50:26.473Z,1.10
2022-09-17T12:52:54.074Z,0.90
2022-09-17T12:55:12.205Z,0.93
2022-09-17T12:57:41.720Z,1.00
2022-09-17T12:59:51.116Z,2.15
2022-09-17T13:02:00.576Z,1.05
2022-09-17T13:04:56.753Z,1.30
2022-09-17T13:07:18.261Z,1.63
2022-09-17T13:09:41.193Z,1.50
2022-09-17T13:12:18.163Z,1.10
2022-09-17T13:14:24.426Z,1.00
2022-09-17T13:16:40.921Z,1.30
2022-09-17T13:19:22.808Z,1.13
2022-09-17T13:21:30.758Z,0.68
2022-09-17T13:23:41.900Z,0.70
2022-09-17T13:25:52.729Z,0.80
2022-09-17T13:28:07.407Z,0.85
2022-09-17T13:30:11.176Z,0.80
2022-09-17T13:32:34.789Z,0.50
2022-09-17T13:34:36.525Z,0.75
2022-09-17T13:36:39.389Z,0.50
2022-09-17T13:38:42.117Z,0.60
2022-09-17T13:40:44.220Z,0.67
2022-09-17T13:42:49.136Z,0.47
2022-09-17T13:45:01.909Z,0.60
2022-09-17T13:47:37.232Z,0.65
2022-09-17T13:49:46.131Z,0.70
2022-09-17T13:51:49.230Z,1.40
2022-09-17T13:53:55.068Z,0.90
2022-09-17T13:56:02.034Z,1.25
2022-09-17T13:58:07.317Z,0.80
2022-09-17T14:00:47.759Z,1.10
2022-09-17T14:02:49.470Z,1.45
2022-09-17T14:04:54.667Z,2.00
2022-09-17T14:06:57.900Z,2.63
2022-09-17T14:08:59.575Z,2.85
2022-09-17T14:11:02.792Z,2.78
2022-09-17T14:13:28.204Z,3.05
2022-09-17T14:15:41.651Z,4.75
2022-09-17T14:17:53.347Z,2.50
2022-09-17T14:19:55.489Z,2.00
2022-09-17T14:22:06.090Z,1.92
2022-09-17T14:24:24.857Z,2.90
2022-09-17T14:26:36.177Z,7.15
2022-09-17T14:29:02.461Z,4.47
2022-09-17T14:31:10.023Z,6.05
2022-09-17T14:33:18.285Z,4.00
2022-09-17T14:35:38.686Z,3.42
2022-09-17T14:37:42.660Z,3.47
2022-09-17T14:39:44.767Z,3.60
2022-09-17T14:41:46.525Z,3.67
2022-09-17T14:43:59.153Z,2.80
2022-09-17T14:46:01.793Z,3.55
2022-09-17T14:48:29.727Z,3.15
2022-09-17T14:50:31.587Z,4.38
2022-09-17T14:52:33.399Z,3.50
2022-09-17T14:54:36.590Z,2.80
2022-09-17T14:56:46.681Z,3.78
2022-09-17T14:58:52.202Z,3.72
2022-09-17T15:00:53.812Z,4.28
2022-09-17T15:02:59.474Z,4.10
2022-09-17T15:05:02.833Z,3.78
2022-09-17T15:07:13.339Z,3.83
2022-09-17T15:09:22.455Z,4.15
2022-09-17T15:11:24.151Z,3.67
2022-09-17T15:13:30.748Z,3.53
2022-09-17T15:15:32.729Z,4.10
2022-09-17T15:17:35.273Z,3.63
2022-09-17T15:19:41.715Z,3.28
2022-09-17T15:21:45.119Z,3.50
2022-09-17T15:23:48.911Z,3.53
2022-09-17T15:25:52.779Z,3.45
2022-09-17T15:27:56.518Z,2.47
2022-09-17T15:30:20.359Z,3.78
2022-09-17T15:32:22.186Z,3.35
2022-09-17T15:34:23.985Z,2.83
2022-09-17T15:36:27.682Z,3.15
2022-09-17T15:40:38.412Z,3.28
2022-09-17T15:42:40.205Z,3.53
2022-09-17T15:44:41.834Z,3.10
2022-09-17T15:46:43.676Z,3.38
2022-09-17T15:48:45.473Z,3.15
2022-09-17T15:50:52.329Z,2.50
2022-09-17T15:53:08.926Z,2.55
2022-09-17T15:55:35.704Z,3.50
2022-09-17T15:57:37.397Z,3.30
2022-09-17T15:59:38.993Z,3.75
2022-09-17T16:01:43.707Z,4.18
2022-09-17T16:03:45.374Z,3.33
2022-09-17T16:05:47.312Z,3.20
2022-09-17T16:07:49.010Z,3.88
2022-09-17T16:09:52.176Z,3.15
2022-09-17T16:11:54.380Z,3.13
2022-09-17T16:13:57.422Z,2.92
2022-09-17T16:15:59.171Z,3.15
2022-09-17T16:18:00.822Z,2.80
2022-09-17T16:20:23.759Z,2.80
2022-09-17T16:22:26.403Z,2.63
2022-09-17T16:24:27.973Z,2.70
2022-09-17T16:26:31.472Z,3.05
2022-09-17T16:28:33.749Z,3.97
2022-09-17T16:30:35.423Z,3.40
2022-09-17T16:32:37.104Z,3.55
2022-09-17T16:34:38.709Z,3.80
2022-09-17T16:36:40.317Z,4.10
2022-09-17T16:38:42.136Z,5.35
2022-09-17T16:40:46.744Z,4.60
2022-09-17T16:42:48.801Z,4.90
2022-09-17T16:44:50.430Z,4.30
2022-09-17T16:46:52.060Z,4.45
2022-09-17T16:48:53.714Z,14.27
2022-09-17T16:50:55.463Z,16.42
2022-09-17T16:53:00.411Z,25.67
2022-09-17T16:55:05.148Z,11.75
2022-09-17T16:57:06.820Z,11.80
2022-09-17T16:59:08.488Z,12.38
2022-09-17T17:01:13.161Z,7.13
2022-09-17T17:03:16.764Z,9.05
2022-09-17T17:07:20.946Z,7.32
2022-09-17T17:09:22.632Z,6.40
2022-09-17T17:11:24.217Z,6.43
2022-09-17T17:13:27.689Z,6.63
2022-09-17T17:15:30.600Z,7.25
2022-09-17T17:17:33.070Z,6.72
2022-09-17T17:19:35.323Z,7.30
2022-09-17T17:21:37.109Z,5.13
2022-09-17T17:23:38.715Z,5.80
2022-09-17T17:25:40.550Z,5.38
2022-09-17T17:27:42.287Z,5.28
2022-09-17T17:29:44.025Z,5.00
2022-09-17T17:31:45.888Z,5.85
2022-09-17T17:33:47.620Z,5.45
2022-09-17T17:35:49.371Z,5.32
2022-09-17T17:37:51.110Z,5.90
2022-09-17T17:39:53.993Z,5.47
2022-09-17T17:41:56.347Z,5.55
2022-09-17T17:43:58.277Z,5.25
2022-09-17T17:46:00.101Z,3.90
2022-09-17T17:48:02.097Z,4.60
2022-09-17T17:50:04.136Z,4.45
2022-09-17T17:52:05.881Z,4.82
2022-09-17T17:54:08.302Z,3.72
2022-09-17T17:56:11.189Z,4.53
2022-09-17T17:58:12.753Z,3.92
2022-09-17T18:00:16.634Z,4.25
2022-09-17T18:02:18.425Z,3.13
2022-09-17T18:04:20.143Z,3.55
2022-09-17T18:06:21.686Z,3.83
2022-09-17T18:08:24.291Z,2.53
2022-09-17T18:10:25.975Z,2.70
2022-09-17T18:12:27.591Z,2.78
2022-09-17T18:14:29.227Z,3.28
2022-09-17T18:16:30.916Z,2.83
2022-09-17T18:18:35.324Z,3.00
2022-09-17T18:20:37.265Z,3.08
2022-09-17T18:22:38.881Z,3.35
2022-09-17T18:24:40.452Z,3.70
2022-09-17T18:26:42.292Z,2.42
2022-09-17T18:28:44.475Z,2.58
2022-09-17T18:30:46.201Z,2.40
2022-09-17T18:32:49.149Z,3.38
2022-09-17T18:34:53.038Z,2.92
2022-09-17T18:36:54.609Z,3.08
2022-09-17T18:39:15.549Z,3.10
2022-09-17T18:41:23.213Z,2.42
2022-09-17T18:43:24.805Z,3.60
2022-09-17T18:45:26.484Z,3.17
2022-09-17T18:47:28.204Z,3.47
2022-09-17T18:49:29.827Z,3.80
2022-09-17T18:51:31.842Z,6.07
2022-09-17T18:53:36.164Z,3.53
2022-09-17T18:55:37.718Z,2.95
2022-09-17T18:57:39.330Z,3.80
2022-09-17T18:59:40.992Z,3.28
2022-09-17T19:01:42.938Z,3.53
2022-09-17T19:03:45.070Z,4.20
2022-09-17T19:05:46.764Z,4.28
2022-09-17T19:07:48.536Z,5.60
2022-09-17T19:09:50.180Z,7.15
2022-09-17T19:11:51.728Z,7.75
2022-09-17T19:13:53.396Z,8.75
2022-09-17T19:16:01.244Z,7.63
2022-09-17T19:18:02.882Z,9.07
2022-09-17T19:20:05.124Z,8.90
2022-09-17T19:22:08.124Z,8.90
2022-09-17T19:24:09.934Z,10.32
2022-09-17T19:26:17.105Z,8.70
2022-09-17T19:28:20.381Z,8.68
2022-09-17T19:30:25.698Z,8.55
2022-09-17T19:32:28.658Z,9.13
2022-09-17T19:34:30.359Z,10.50
2022-09-17T19:36:32.273Z,9.73
2022-09-17T19:38:34.537Z,8.43
2022-09-17T19:40:36.203Z,8.60
2022-09-17T19:42:37.961Z,10.45
2022-09-17T19:44:39.847Z,8.48
2022-09-17T19:46:41.627Z,8.02
2022-09-17T19:48:54.451Z,9.57
2022-09-17T19:50:57.057Z,8.45
2022-09-17T19:52:58.765Z,5.47
2022-09-17T19:55:01.018Z,5.70
2022-09-17T19:57:02.636Z,6.43
2022-09-17T19:59:04.496Z,6.70
2022-09-17T20:01:06.202Z,6.40
2022-09-17T20:03:08.884Z,4.45
2022-09-17T20:05:10.548Z,4.05
2022-09-17T20:07:12.263Z,3.80
2022-09-17T20:09:13.809Z,4.60
2022-09-17T20:11:16.443Z,2.97
2022-09-17T20:13:18.726Z,3.28
2022-09-17T20:15:20.419Z,3.75
2022-09-17T20:17:22.079Z,2.60
2022-09-17T20:19:23.863Z,3.53
2022-09-17T20:21:31.127Z,3.30
2022-09-17T20:23:32.970Z,2.75
2022-09-17T20:25:34.946Z,2.65
2022-09-17T20:27:36.622Z,2.47
2022-09-17T20:29:38.247Z,2.40
2022-09-17T20:31:40.227Z,2.95
2022-09-17T20:33:42.156Z,2.20
2022-09-17T20:35:43.956Z,2.78
2022-09-17T20:38:33.386Z,3.15
2022-09-17T20:40:07.999Z,2.55
2022-09-17T20:42:09.719Z,3.17
2022-09-17T20:44:11.295Z,2.25
2022-09-17T20:46:13.529Z,2.10
2022-09-17T20:48:15.341Z,2.42
2022-09-17T20:50:17.004Z,2.47
2022-09-17T20:52:21.095Z,2.30
2022-09-17T20:54:23.049Z,2.78
2022-09-17T20:56:27.488Z,2.33
2022-09-17T20:58:36.507Z,2.40
2022-09-17T21:00:38.093Z,2.72
2022-09-17T21:02:41.623Z,2.88
2022-09-17T21:04:43.275Z,2.40
2022-09-17T21:06:45.735Z,2.78
2022-09-17T21:08:48.197Z,2.65
2022-09-17T21:10:49.945Z,4.13
2022-09-17T21:12:51.544Z,4.93
2022-09-17T21:14:53.204Z,2.15
2022-09-17T21:16:55.143Z,2.67
2022-09-17T21:18:58.648Z,2.42
2022-09-17T21:21:08.689Z,3.40
2022-09-17T21:23:10.331Z,2.70
2022-09-17T21:25:11.939Z,2.47
2022-09-17T21:27:13.513Z,2.92
2022-09-17T21:29:15.302Z,5.60
2022-09-17T21:31:22.349Z,3.90
2022-09-17T21:33:24.053Z,2.67
2022-09-17T21:35:29.934Z,2.38
2022-09-17T21:37:31.571Z,2.70
2022-09-17T21:39:35.616Z,2.63
2022-09-17T21:41:41.609Z,2.40
2022-09-17T21:43:44.336Z,2.30
2022-09-17T21:45:45.997Z,2.58
2022-09-17T21:47:47.815Z,2.15
2022-09-17T21:49:49.409Z,1.95
2022-09-17T21:51:51.259Z,1.80
2022-09-17T21:53:55.059Z,1.92
2022-09-17T21:56:01.474Z,1.70
2022-09-17T21:58:03.137Z,2.28
2022-09-17T22:00:06.499Z,3.25
2022-09-17T22:02:08.154Z,3.10
2022-09-17T22:04:13.238Z,4.35
2022-09-17T22:06:18.958Z,3.90
2022-09-17T22:08:20.555Z,6.75
2022-09-17T22:10:22.425Z,6.10
2022-09-17T22:12:24.008Z,7.20
2022-09-17T22:14:25.840Z,8.32
2022-09-17T22:16:30.796Z,10.88
2022-09-17T22:18:34.576Z,8.02
2022-09-17T22:22:37.923Z,8.07
2022-09-17T22:24:43.574Z,9.18
2022-09-17T22:26:47.709Z,8.80
2022-09-17T22:28:50.289Z,7.03
2022-09-17T22:30:51.968Z,4.00
2022-09-17T22:32:53.564Z,4.80
2022-09-17T22:34:55.291Z,4.60
2022-09-17T22:36:56.913Z,4.30
2022-09-17T22:38:58.933Z,4.22
2022-09-17T22:41:17.665Z,4.30
2022-09-17T22:43:19.258Z,3.95
2022-09-17T22:45:20.818Z,4.25
2022-09-17T22:47:22.538Z,3.83
2022-09-17T22:49:24.051Z,4.13
2022-09-17T22:51:27.120Z,4.20
2022-09-17T22:53:28.928Z,4.20
2022-09-17T22:55:31.118Z,3.58
2022-09-17T22:57:32.693Z,3.22
2022-09-17T22:59:34.535Z,3.30
2022-09-17T23:01:36.695Z,3.72
2022-09-17T23:03:39.467Z,3.13
2022-09-17T23:05:41.057Z,3.15
2022-09-17T23:07:42.672Z,3.30
2022-09-17T23:09:44.396Z,3.35
2022-09-17T23:11:46.175Z,3.13
2022-09-17T23:13:48.763Z,3.55
2022-09-17T23:15:50.471Z,3.35
2022-09-17T23:17:52.239Z,12.80
2022-09-17T23:19:54.000Z,12.07
2022-09-17T23:21:55.542Z,29.60
2022-09-17T23:23:57.350Z,21.80
2022-09-17T23:26:03.510Z,30.77
2022-09-17T23:28:05.102Z,21.63
2022-09-17T23:30:07.209Z,23.55
2022-09-17T23:32:08.791Z,19.33
2022-09-17T23:34:10.695Z,13.50
2022-09-17T23:36:19.411Z,11.70
2022-09-17T23:38:20.965Z,11.02
2022-09-17T23:40:23.493Z,10.23
2022-09-17T23:42:25.496Z,8.40
2022-09-17T23:44:27.265Z,9.15
2022-09-17T23:46:31.592Z,8.85
2022-09-17T23:48:33.509Z,5.82
2022-09-17T23:50:35.228Z,6.45
2022-09-17T23:52:36.875Z,3.35
2022-09-17T23:54:38.481Z,3.13
2022-09-17T23:56:40.512Z,1.88
2022-09-17T23:58:42.202Z,2.10
